Campanya Meteocatpedra
Centenari de l'SMC: 100 anys mirant el cel

Dades de l'estació automàtica el Prat de Llobregat

?
?

Resum diari

22:30 TU
Dades diàries de l'estació meteorològica
Temperatura mitjana 19.2 °C
Temperatura màxima 26.5 °C 12:13 TU
Temperatura mínima 15.8 °C 4:41 TU
Humitat relativa mitjana 74%
Precipitació acumulada 2.8 mm
Ratxa màxima del vent (10 m) 35.6 km/h - 49º 18:19 TU
Irradiació solar global 14.4 MJ/m2

El tram horari està expressat en Temps Universal (TU). Cal sumar una hora en horari d'hivern i dues en horari d'estiu per passar a l'hora oficial.

el Prat de Llobregat

Metadades estació meteorològica
Municipi El Prat de Llobregat
Comarca Baix Llobregat
Altitud 8 m
Data alta 22.03.2011
Estat actual Operativa
Dades de període
Període
TU
TM
°C
TX
°C
TN
°C
HRM
%
PPT
mm
VVM (10 m)
km/h
DVM (10 m)
graus
VVX (10 m)
km/h
RS
W/m2
00:00 - 00:30 16.6 16.8 16.5 83 0.0 7.2 314 15.5 0
00:30 - 01:00 16.7 16.9 16.2 83 0.0 8.3 309 17.6 0
01:00 - 01:30 16.2 16.4 16.0 85 0.0 9.0 306 18.0 0
01:30 - 02:00 16.4 16.5 16.2 84 0.0 9.4 307 15.8 0
02:00 - 02:30 16.1 16.2 16.0 85 0.0 9.0 305 18.4 0
02:30 - 03:00 16.4 16.9 16.1 83 0.0 9.4 314 18.0 0
03:00 - 03:30 16.5 16.9 16.2 81 0.0 10.4 310 19.8 0
03:30 - 04:00 16.0 16.2 15.9 84 0.0 11.2 311 24.5 0
04:00 - 04:30 16.3 16.4 16.1 82 0.0 11.2 308 22.3 0
04:30 - 05:00 15.9 16.1 15.8 83 0.0 10.1 313 22.3 0
05:00 - 05:30 16.3 16.4 16.0 80 0.0 10.8 314 23.0 0
05:30 - 06:00 16.5 16.6 16.3 78 0.0 11.5 314 23.0 10
06:00 - 06:30 17.0 18.0 16.6 74 0.0 9.7 317 21.6 51
06:30 - 07:00 18.2 18.3 18.0 67 0.0 12.6 319 30.6 102
07:00 - 07:30 18.6 19.4 18.0 66 0.0 13.3 319 32.8 218
07:30 - 08:00 19.1 19.3 18.8 63 0.0 14.0 321 29.5 225
08:00 - 08:30 19.5 20.8 19.0 61 0.0 13.7 319 29.5 335
08:30 - 09:00 21.2 22.1 20.7 56 0.0 14.0 321 28.1 557
09:00 - 09:30 22.2 22.7 21.7 52 0.0 14.8 321 33.5 626
09:30 - 10:00 23.2 23.5 23.0 50 0.0 11.5 337 23.4 665
10:00 - 10:30 23.8 24.3 23.1 48 0.0 12.2 349 25.2 726
10:30 - 11:00 24.0 24.4 23.7 48 0.0 11.5 345 22.3 575
11:00 - 11:30 25.0 25.9 23.8 46 0.0 7.9 7 17.6 797
11:30 - 12:00 25.9 26.3 25.4 43 0.0 5.8 13 17.6 783
12:00 - 12:30 25.8 26.5 25.2 48 0.0 7.9 95 22.3 689
12:30 - 13:00 24.4 25.3 23.8 60 0.0 14.0 126 25.9 433
13:00 - 13:30 23.7 24.8 22.7 66 0.0 13.0 116 27.7 248
13:30 - 14:00 22.3 22.7 22.1 70 0.1 16.2 124 29.5 108
14:00 - 14:30 20.7 22.1 19.9 88 1.8 16.6 129 26.6 159
14:30 - 15:00 20.8 21.6 19.9 93 0.0 12.6 130 25.2 230
15:00 - 15:30 21.7 21.8 21.6 79 0.0 11.2 154 22.3 137
15:30 - 16:00 21.7 22.3 21.6 75 0.0 8.6 182 19.8 95
16:00 - 16:30 21.3 22.4 19.2 79 0.4 9.0 86 22.7 68
16:30 - 17:00 18.4 19.0 17.9 86 0.5 16.2 115 31.3 105
17:00 - 17:30 17.9 18.0 17.8 85 0.0 9.7 129 28.8 78
17:30 - 18:00 17.8 18.2 17.7 86 0.0 5.0 70 8.3 15
18:00 - 18:30 18.1 18.5 17.2 86 0.0 11.9 100 35.6 0
18:30 - 19:00 16.8 17.1 16.6 86 0.0 11.2 52 29.5 0
19:00 - 19:30 17.0 17.2 16.8 84 0.0 7.6 39 18.4 0
19:30 - 20:00 17.3 17.4 17.2 84 0.0 10.1 50 22.0 0
20:00 - 20:30 17.3 17.4 17.2 80 0.0 8.6 51 21.6 0
20:30 - 21:00 17.5 17.6 17.2 77 0.0 6.8 48 15.1 0
21:00 - 21:30 17.2 17.5 16.6 80 0.0 3.2 353 8.3 0
21:30 - 22:00 16.8 16.9 16.5 82 0.0 4.7 325 9.0 0
22:00 - 22:30 16.8 16.9 16.7 83 0.0 4.3 329 8.6 0
22:30 - 23:00 16.4 16.7 16.2 86 0.0 5.0 313 9.7 0

Les dades en taronja només han passat un control de qualitat automàtic. Resta pendent la seva validació definitiva.